Aérodrome :
LOGIN :

S'inscrire | Disclaimer

   EN    FR    IT 

 










Légende :    VFR   VFR Marginal   IFR   IFR Intensif   IFR Très Intensif
Visi : 
Plafond : 
>= 8 km
>= 3000ft
5 à 8 km
1000 à 3000 ft
1500m à 5 km
500 à 1000 ft
800 à 1500m
200 à 500 ft
< 800m
< 200 ft
Symboles :   Orages  Brouillard  Fortes neiges  Fortes précipitations  Vent > 20 kt
SIGMETs :   Divers  Orages  Givrage  Turbulence  Onde Orograph.  Cendres Volcan.







- Altitude de l'aérodrome : 265 ft


ETSH - Holzdorf AB

DERNIER METAR :
  • 201320Z 17003KT 9000 BKN060 BKN090 18/16 Q1001 BLU BLU TEMPO YLO

METARs EXPIRÉS :
  • 201220Z 08006KT 9999 -RA FEW036 BKN070 BKN090 21/12 Q1002 BLU BLU TEMPO WHT
  • 201120Z 06006KT 9999 FEW044 SCT080 BKN110 23/12 Q1001 BLU BLU TEMPO WHT

TAF TAF ETSH
Valide du 20 à 14h jusqu'au 20 à 23h UTC


201312Z 2014/2023 VRB03KT 9999 NSW SCT040 BKN070
TEMPO 2014/2020 07020G30KT 2000 TSRA BKN010 BKN035
Pas de NOTAMs connus pour ce terrain.
3 SIGMETs publiés pour la FIR Bremen (EDWW) :
 
Orages en lignes de grains avec grêle
EDWW SIGMET 2 VALID 201335/201530 EDZF
EDWW BREMEN FIR SQL TSGR OBS S OF N5320 AND E OF E01330 TOP FL380 MOV W 20KT NC=
Orages en lignes de grains avec grêle
EDWW SIGMET 1 VALID 201335/201530 EDZF
EDWW BREMEN FIR SQL TSGR OBS S OF N5320 AND E OF E01330 TOP FL380 MOV W 20KT NC=
Orages fréquents avec grêle
EDWW SIGMET 1 VALID 201211/201410 EDZF
EDWW BREMEN FIR FRQ TSGR FCST APRX 20NM WID LINE BTN N5137 E01012 - N5123 E01028 TOP FL350 MOV SSW 20KT NC=



MET'MAP, la Météo Aéronautique d'un coup d'oeil ! - Copyright ORBIFLY Décembre 2007 - Disclaimer

ORBIFLY MET'MAP TEAM :

Programmation & Développement : Alexandra Zaïnal
Conception & Développement : Baudouin d'Aumeries
Co-Programmation & Développement : Marc-Olivier Méhu
Soutien technique & logistique : Manuel Goepfert

Contact : metmap@orbifly.com




SOURCES & CREDITS :

   NOAA